Wednesday, July 30, 2014, 12:59 AM EDT
Back to Local

KMPO, Mt Pocono Pocono Mountains

Location: Pocono Summit, PA, United States Lat: 41.133
Local Time: 12:59 AM EDT ( 4:59 GMT) Lon: -75.383
Time Zone: US/Eastern Elev: 1915 ft

Show me the last for .
Show Decoded

2014-07-29 23:53 METAR KMPO 300353Z AUTO 31003KT 10SM SCT065 11/09 A3002 RMK AO2 SLP164 T01110094
                 =
2014-07-29 22:53 METAR KMPO 300253Z AUTO 00000KT 10SM SCT065 12/10 A3002 RMK AO2 SLP163 T01220100
                 51006 =
2014-07-29 21:53 METAR KMPO 300153Z AUTO 32004KT 10SM OVC065 14/09 A3002 RMK AO2 SLP163 T01390094
                 =
2014-07-29 20:53 METAR KMPO 300053Z AUTO 31005KT 10SM OVC065 15/10 A3000 RMK AO2 SLP158 T01500100
                 =
2014-07-29 19:53 METAR KMPO 292353Z AUTO 32006KT 10SM OVC065 16/09 A3000 RMK AO2 SLP156 T01610094
                 10194 20161 51012 =
2014-07-29 18:53 METAR KMPO 292253Z AUTO 33007KT 10SM OVC065 17/09 A2999 RMK AO2 SLP154 T01670094
                 =
2014-07-29 17:53 METAR KMPO 292153Z AUTO 34006KT 10SM OVC060 17/09 A2998 RMK AO2 SLP149 T01720094
                 =
2014-07-29 16:53 METAR KMPO 292053Z AUTO 32007KT 10SM OVC060 18/07 A2996 RMK AO2 SLP143 T01780072
                 53010 =
2014-07-29 15:53 METAR KMPO 291953Z AUTO 31007KT 10SM OVC060 18/08 A2995 RMK AO2 SLP138 T01830083
                 =
2014-07-29 14:53 METAR KMPO 291853Z AUTO 33007KT 10SM FEW041 OVC055 18/08 A2994 RMK AO2 SLP135
                 T01780083 =
2014-07-29 13:53 METAR KMPO 291753Z AUTO 29008KT 10SM FEW042 BKN050 18/07 A2993 RMK AO2 SLP131
                 T01830072 10189 20133 55000 =
2014-07-29 12:53 METAR KMPO 291653Z AUTO 30010KT 270V340 10SM FEW038 BKN048 18/08 A2993 RMK AO2
                 SLP129 T01830083 =
2014-07-29 11:53 METAR KMPO 291553Z AUTO 31011G18KT 10SM BKN047 17/08 A2993 RMK AO2 SLP131
                 T01720078 =
2014-07-29 10:53 METAR KMPO 291453Z AUTO 34008KT 10SM FEW031 SCT042 17/09 A2993 RMK AO2 SLP131
                 T01720094 51013 =
2014-07-29 09:53 METAR KMPO 291353Z AUTO 33007G20KT 10SM CLR 16/09 A2992 RMK AO2 SLP128 T01560089
                 =
2014-07-29 08:53 METAR KMPO 291253Z AUTO 31008KT 10SM CLR 14/10 A2991 RMK AO2 SLP124 T01440100 =
2014-07-29 07:53 METAR KMPO 291153Z AUTO 32011KT 10SM CLR 13/10 A2989 RMK AO2 SLP119 70021
                 T01330100 10133 20122 53015 =
2014-07-29 06:53 METAR KMPO 291053Z AUTO 30009KT 10SM CLR 12/11 A2987 RMK AO2 SLP112 T01220106 =
2014-07-29 05:53 METAR KMPO 290953Z AUTO 31009KT 10SM CLR 12/11 A2986 RMK AO2 SLP107 T01220106 =
2014-07-29 05:28 METAR KMPO 290928Z AUTO 31010KT 10SM SCT017 13/11 A2985 RMK AO2 T01280106 =
2014-07-29 04:42 METAR KMPO 290842Z AUTO 29008KT 10SM BKN015 OVC022 13/11 A2984 RMK AO2 T01280111
                 =
2014-07-29 04:19 METAR KMPO 290819Z AUTO 30007KT 10SM BKN013 OVC022 13/11 A2983 RMK AO2 T01330111
                 =
2014-07-29 04:09 METAR KMPO 290809Z AUTO 31007KT 10SM SCT013 OVC020 13/11 A2983 RMK AO2 T01330111
                 =
2014-07-29 03:53 METAR KMPO 290753Z AUTO 31007KT 10SM BKN012 OVC020 13/11 A2983 RMK AO2 SLP093
                 T01330111 =
2014-07-29 02:53 METAR KMPO 290653Z AUTO 33009KT 10SM BKN011 13/11 A2981 RMK AO2 SLP088 T01280106
                 =
2014-07-29 02:50 METAR KMPO 290650Z AUTO 32008G16KT 10SM BKN011 13/11 A2981 RMK AO2 =
2014-07-29 01:53 METAR KMPO 290553Z AUTO 32011G15KT 10SM FEW013 13/11 A2981 RMK AO2 SLP089 60000
                 T01330106 10161 20133 53003 =
2014-07-29 01:46 METAR KMPO 290546Z AUTO 32008KT 10SM FEW013 13/11 A2981 RMK AO2 T01330111 =
2014-07-29 01:29 METAR KMPO 290529Z AUTO 32012G18KT 10SM BKN014 BKN023 14/11 A2980 RMK AO2
                 T01390111 =
2014-07-29 01:22 METAR KMPO 290522Z AUTO 31010KT 10SM SCT012 OVC025 14/11 A2980 RMK AO2 T01390111
                 =

Support USWX by starting your Amazon purchase here.